sensor_id;sensor_type;location;lat;lon;timestamp;pressure;altitude;pressure_sealevel;temperature;humidity
36726;BME280;44936;52.086;5.150;2023-04-01T00:00:24;99548.47;;;10.31;100.00
36726;BME280;44936;52.086;5.150;2023-04-01T00:02:50;99549.31;;;10.34;100.00
36726;BME280;44936;52.086;5.150;2023-04-01T00:05:15;99553.69;;;10.32;100.00
36726;BME280;44936;52.086;5.150;2023-04-01T00:07:44;99565.19;;;10.24;100.00
36726;BME280;44936;52.086;5.150;2023-04-01T00:10:11;99558.41;;;10.09;100.00
36726;BME280;44936;52.086;5.150;2023-04-01T00:12:37;99536.81;;;9.94;100.00
36726;BME280;44936;52.086;5.150;2023-04-01T00:15:05;99519.56;;;9.81;100.00
36726;BME280;44936;52.086;5.150;2023-04-01T00:17:32;99562.94;;;9.98;100.00
36726;BME280;44936;52.086;5.150;2023-04-01T00:19:57;99570.81;;;9.96;100.00
36726;BME280;44936;52.086;5.150;2023-04-01T00:22:26;99562.16;;;9.92;100.00
36726;BME280;44936;52.086;5.150;2023-04-01T00:24:52;99549.97;;;9.91;100.00
36726;BME280;44936;52.086;5.150;2023-04-01T00:27:18;99546.38;;;9.96;100.00
36726;BME280;44936;52.086;5.150;2023-04-01T00:29:45;99567.19;;;10.05;100.00
36726;BME280;44936;52.086;5.150;2023-04-01T00:32:11;99527.41;;;9.81;100.00
36726;BME280;44936;52.086;5.150;2023-04-01T00:34:36;99540.38;;;9.90;100.00
36726;BME280;44936;52.086;5.150;2023-04-01T00:37:03;99564.78;;;9.92;100.00
36726;BME280;44936;52.086;5.150;2023-04-01T00:39:30;99555.94;;;9.98;100.00
36726;BME280;44936;52.086;5.150;2023-04-01T00:41:56;99568.06;;;10.05;100.00
36726;BME280;44936;52.086;5.150;2023-04-01T00:44:28;99571.56;;;10.06;100.00
36726;BME280;44936;52.086;5.150;2023-04-01T00:46:55;99567.19;;;10.08;100.00
36726;BME280;44936;52.086;5.150;2023-04-01T00:49:27;99575.91;;;10.07;100.00
36726;BME280;44936;52.086;5.150;2023-04-01T00:51:55;99580.34;;;10.03;100.00
36726;BME280;44936;52.086;5.150;2023-04-01T00:54:24;99583.03;;;9.99;100.00
36726;BME280;44936;52.086;5.150;2023-04-01T00:56:59;99568.09;;;10.04;100.00
36726;BME280;44936;52.086;5.150;2023-04-01T00:59:29;99568.97;;;10.03;100.00
36726;BME280;44936;52.086;5.150;2023-04-01T01:01:55;99562.16;;;9.92;100.00
36726;BME280;44936;52.086;5.150;2023-04-01T01:04:29;99571.00;;;9.85;100.00
36726;BME280;44936;52.086;5.150;2023-04-01T01:07:22;99566.72;;;9.78;100.00
36726;BME280;44936;52.086;5.150;2023-04-01T01:15:28;99564.16;;;9.75;100.00
36726;BME280;44936;52.086;5.150;2023-04-01T01:18:27;99578.13;;;9.74;100.00
36726;BME280;44936;52.086;5.150;2023-04-01T01:37:25;99560.81;;;9.65;100.00
36726;BME280;44936;52.086;5.150;2023-04-01T01:39:59;99573.78;;;9.72;100.00
36726;BME280;44936;52.086;5.150;2023-04-01T01:42:26;99566.13;;;9.58;100.00
36726;BME280;44936;52.086;5.150;2023-04-01T01:44:55;99580.88;;;9.65;100.00
36726;BME280;44936;52.086;5.150;2023-04-01T01:47:23;99574.78;;;9.64;100.00
36726;BME280;44936;52.086;5.150;2023-04-01T01:49:51;99571.28;;;9.65;100.00
36726;BME280;44936;52.086;5.150;2023-04-01T01:52:17;99552.28;;;9.50;100.00
36726;BME280;44936;52.086;5.150;2023-04-01T01:54:54;99553.09;;;9.55;100.00
36726;BME280;44936;52.086;5.150;2023-04-01T01:57:25;99588.63;;;9.73;100.00
36726;BME280;44936;52.086;5.150;2023-04-01T01:59:55;99587.03;;;9.61;100.00
36726;BME280;44936;52.086;5.150;2023-04-01T02:02:23;99563.59;;;9.52;100.00
36726;BME280;44936;52.086;5.150;2023-04-01T02:04:51;99585.28;;;9.60;100.00
36726;BME280;44936;52.086;5.150;2023-04-01T02:07:24;99594.13;;;9.51;100.00
36726;BME280;44936;52.086;5.150;2023-04-01T02:09:52;99592.22;;;9.65;100.00
36726;BME280;44936;52.086;5.150;2023-04-01T02:12:19;99596.53;;;9.68;100.00
36726;BME280;44936;52.086;5.150;2023-04-01T02:14:57;99591.34;;;9.65;100.00
36726;BME280;44936;52.086;5.150;2023-04-01T02:17:27;99592.31;;;9.58;100.00
36726;BME280;44936;52.086;5.150;2023-04-01T02:20:07;99614.94;;;9.62;100.00
36726;BME280;44936;52.086;5.150;2023-04-01T02:22:37;99594.84;;;9.62;100.00
36726;BME280;44936;52.086;5.150;2023-04-01T02:25:07;99607.97;;;9.61;100.00
36726;BME280;44936;52.086;5.150;2023-04-01T02:27:33;99620.19;;;9.63;100.00
36726;BME280;44936;52.086;5.150;2023-04-01T02:29:59;99620.16;;;9.62;100.00
36726;BME280;44936;52.086;5.150;2023-04-01T02:32:25;99616.72;;;9.58;100.00
36726;BME280;44936;52.086;5.150;2023-04-01T02:34:51;99583.00;;;9.37;100.00
36726;BME280;44936;52.086;5.150;2023-04-01T02:37:17;99621.09;;;9.58;100.00
36726;BME280;44936;52.086;5.150;2023-04-01T02:39:43;99614.16;;;9.54;100.00
36726;BME280;44936;52.086;5.150;2023-04-01T02:42:09;99613.38;;;9.49;100.00
36726;BME280;44936;52.086;5.150;2023-04-01T02:44:35;99622.03;;;9.52;100.00
36726;BME280;44936;52.086;5.150;2023-04-01T02:47:01;99626.41;;;9.52;100.00
36726;BME280;44936;52.086;5.150;2023-04-01T02:49:27;99622.09;;;9.48;100.00
36726;BME280;44936;52.086;5.150;2023-04-01T02:51:52;99617.69;;;9.54;100.00
36726;BME280;44936;52.086;5.150;2023-04-01T02:54:18;99620.25;;;9.56;100.00
36726;BME280;44936;52.086;5.150;2023-04-01T02:56:44;99628.16;;;9.54;100.00
36726;BME280;44936;52.086;5.150;2023-04-01T02:59:10;99638.63;;;9.51;100.00
36726;BME280;44936;52.086;5.150;2023-04-01T03:01:36;99638.59;;;9.53;100.00
36726;BME280;44936;52.086;5.150;2023-04-01T03:04:01;99634.22;;;9.56;100.00
36726;BME280;44936;52.086;5.150;2023-04-01T03:06:26;99643.81;;;9.57;100.00
36726;BME280;44936;52.086;5.150;2023-04-01T03:08:52;99631.63;;;9.53;100.00
36726;BME280;44936;52.086;5.150;2023-04-01T03:11:17;99615.97;;;9.49;100.00
36726;BME280;44936;52.086;5.150;2023-04-01T03:13:42;99629.94;;;9.49;100.00
36726;BME280;44936;52.086;5.150;2023-04-01T03:16:08;99630.72;;;9.57;100.00
36726;BME280;44936;52.086;5.150;2023-04-01T03:18:33;99648.91;;;9.68;100.00
36726;BME280;44936;52.086;5.150;2023-04-01T03:21:13;99637.63;;;9.63;100.00
36726;BME280;44936;52.086;5.150;2023-04-01T03:23:38;99657.63;;;9.69;100.00
36726;BME280;44936;52.086;5.150;2023-04-01T03:26:03;99666.34;;;9.69;100.00
36726;BME280;44936;52.086;5.150;2023-04-01T03:28:29;99670.63;;;9.76;100.00
36726;BME280;44936;52.086;5.150;2023-04-01T03:30:54;99665.34;;;9.78;100.00
36726;BME280;44936;52.086;5.150;2023-04-01T03:33:20;99673.22;;;9.78;100.00
36726;BME280;44936;52.086;5.150;2023-04-01T03:35:45;99669.63;;;9.86;100.00
36726;BME280;44936;52.086;5.150;2023-04-01T03:38:10;99680.13;;;9.83;100.00
36726;BME280;44936;52.086;5.150;2023-04-01T03:40:36;99676.56;;;9.89;100.00
36726;BME280;44936;52.086;5.150;2023-04-01T03:43:03;99670.47;;;9.87;100.00
36726;BME280;44936;52.086;5.150;2023-04-01T03:45:31;99675.75;;;9.85;100.00
36726;BME280;44936;52.086;5.150;2023-04-01T03:47:57;99672.22;;;9.86;100.00
36726;BME280;44936;52.086;5.150;2023-04-01T03:50:22;99685.41;;;9.82;100.00
36726;BME280;44936;52.086;5.150;2023-04-01T03:52:47;99667.19;;;9.70;100.00
36726;BME280;44936;52.086;5.150;2023-04-01T03:55:13;99678.44;;;9.81;100.00
36726;BME280;44936;52.086;5.150;2023-04-01T03:57:38;99681.06;;;9.78;100.00
36726;BME280;44936;52.086;5.150;2023-04-01T04:00:04;99679.25;;;9.84;100.00
36726;BME280;44936;52.086;5.150;2023-04-01T04:02:29;99673.16;;;9.82;100.00
36726;BME280;44936;52.086;5.150;2023-04-01T04:04:54;99685.31;;;9.89;100.00
36726;BME280;44936;52.086;5.150;2023-04-01T04:07:20;99694.06;;;9.87;100.00
36726;BME280;44936;52.086;5.150;2023-04-01T04:09:45;99687.09;;;9.86;100.00
36726;BME280;44936;52.086;5.150;2023-04-01T04:12:10;99684.44;;;9.87;100.00
36726;BME280;44936;52.086;5.150;2023-04-01T04:14:36;99686.09;;;9.94;100.00
36726;BME280;44936;52.086;5.150;2023-04-01T04:17:01;99680.81;;;9.98;100.00
36726;BME280;44936;52.086;5.150;2023-04-01T04:19:32;99669.59;;;9.88;100.00
36726;BME280;44936;52.086;5.150;2023-04-01T04:21:58;99657.47;;;9.82;100.00
36726;BME280;44936;52.086;5.150;2023-04-01T04:24:29;99694.72;;;10.03;100.00
36726;BME280;44936;52.086;5.150;2023-04-01T04:26:54;99687.81;;;9.97;100.00
36726;BME280;44936;52.086;5.150;2023-04-01T04:29:20;99678.31;;;9.90;100.00
36726;BME280;44936;52.086;5.150;2023-04-01T04:31:45;99686.16;;;9.88;100.00
36726;BME280;44936;52.086;5.150;2023-04-01T04:34:11;99700.13;;;9.90;100.00
36726;BME280;44936;52.086;5.150;2023-04-01T04:36:36;99725.25;;;10.05;100.00
36726;BME280;44936;52.086;5.150;2023-04-01T04:39:01;99733.97;;;10.06;100.00
36726;BME280;44936;52.086;5.150;2023-04-01T04:41:28;99744.47;;;10.07;100.00
36726;BME280;44936;52.086;5.150;2023-04-01T04:43:55;99748.88;;;10.02;100.00
36726;BME280;44936;52.086;5.150;2023-04-01T04:46:21;99740.09;;;10.05;100.00
36726;BME280;44936;52.086;5.150;2023-04-01T04:48:47;99766.25;;;10.11;100.00
36726;BME280;44936;52.086;5.150;2023-04-01T04:51:17;99761.06;;;10.05;100.00
36726;BME280;44936;52.086;5.150;2023-04-01T04:53:43;99765.47;;;10.01;100.00
36726;BME280;44936;52.086;5.150;2023-04-01T04:56:09;99786.28;;;10.13;100.00
36726;BME280;44936;52.086;5.150;2023-04-01T04:58:35;99791.50;;;10.15;100.00
36726;BME280;44936;52.086;5.150;2023-04-01T05:01:12;99798.53;;;10.11;100.00
36726;BME280;44936;52.086;5.150;2023-04-01T05:03:39;99808.19;;;10.09;100.00
36726;BME280;44936;52.086;5.150;2023-04-01T05:06:05;99815.13;;;10.12;100.00
36726;BME280;44936;52.086;5.150;2023-04-01T05:08:31;99802.16;;;10.01;100.00
36726;BME280;44936;52.086;5.150;2023-04-01T05:10:58;99824.75;;;10.11;100.00
36726;BME280;44936;52.086;5.150;2023-04-01T05:13:24;99820.53;;;10.00;100.00
36726;BME280;44936;52.086;5.150;2023-04-01T05:15:50;99830.91;;;10.07;100.00
36726;BME280;44936;52.086;5.150;2023-04-01T05:18:15;99830.03;;;10.05;100.00
36726;BME280;44936;52.086;5.150;2023-04-01T05:20:49;99813.56;;;9.96;100.00
36726;BME280;44936;52.086;5.150;2023-04-01T05:23:15;99842.19;;;10.12;100.00
36726;BME280;44936;52.086;5.150;2023-04-01T05:25:41;99846.53;;;10.15;100.00
36726;BME280;44936;52.086;5.150;2023-04-01T05:28:06;99857.84;;;10.20;100.00
36726;BME280;44936;52.086;5.150;2023-04-01T05:30:32;99836.97;;;10.12;100.00
36726;BME280;44936;52.086;5.150;2023-04-01T05:32:57;99831.00;;;10.00;100.00
36726;BME280;44936;52.086;5.150;2023-04-01T05:35:23;99867.50;;;10.16;100.00
36726;BME280;44936;52.086;5.150;2023-04-01T05:37:49;99872.66;;;10.21;100.00
36726;BME280;44936;52.086;5.150;2023-04-01T05:40:14;99872.72;;;10.15;100.00
36726;BME280;44936;52.086;5.150;2023-04-01T05:42:40;99876.16;;;10.21;100.00
36726;BME280;44936;52.086;5.150;2023-04-01T05:45:05;99883.19;;;10.18;100.00
36726;BME280;44936;52.086;5.150;2023-04-01T05:47:31;99885.78;;;10.23;100.00
36726;BME280;44936;52.086;5.150;2023-04-01T05:49:56;99891.91;;;10.20;100.00
36726;BME280;44936;52.086;5.150;2023-04-01T05:52:22;99890.22;;;10.16;100.00
36726;BME280;44936;52.086;5.150;2023-04-01T05:54:47;99902.44;;;10.14;100.00
36726;BME280;44936;52.086;5.150;2023-04-01T05:57:12;99907.69;;;10.12;100.00
36726;BME280;44936;52.086;5.150;2023-04-01T05:59:38;99911.19;;;10.13;100.00
36726;BME280;44936;52.086;5.150;2023-04-01T06:02:03;99915.53;;;10.15;100.00
36726;BME280;44936;52.086;5.150;2023-04-01T06:04:34;99925.22;;;10.09;100.00
36726;BME280;44936;52.086;5.150;2023-04-01T06:07:09;99926.00;;;10.17;100.00
36726;BME280;44936;52.086;5.150;2023-04-01T06:09:35;99921.63;;;10.19;100.00
36726;BME280;44936;52.086;5.150;2023-04-01T06:12:23;99924.22;;;10.25;100.00
36726;BME280;44936;52.086;5.150;2023-04-01T06:39:58;99996.69;;;10.29;100.00
36726;BME280;44936;52.086;5.150;2023-04-01T06:47:26;100008.88;;;10.32;100.00
36726;BME280;44936;52.086;5.150;2023-04-01T06:50:16;100014.16;;;10.29;100.00
36726;BME280;44936;52.086;5.150;2023-04-01T06:55:47;100021.13;;;10.31;100.00
36726;BME280;44936;52.086;5.150;2023-04-01T06:58:23;100022.03;;;10.29;100.00
36726;BME280;44936;52.086;5.150;2023-04-01T07:00:53;100024.56;;;10.38;100.00
36726;BME280;44936;52.086;5.150;2023-04-01T07:03:40;100022.84;;;10.35;100.00
36726;BME280;44936;52.086;5.150;2023-04-01T07:06:20;100030.69;;;10.37;100.00
36726;BME280;44936;52.086;5.150;2023-04-01T07:08:50;100032.47;;;10.30;100.00
36726;BME280;44936;52.086;5.150;2023-04-01T07:11:26;100028.16;;;10.26;100.00
36726;BME280;44936;52.086;5.150;2023-04-01T07:14:22;100046.50;;;10.28;100.00
36726;BME280;44936;52.086;5.150;2023-04-01T07:17:06;100052.56;;;10.31;100.00
36726;BME280;44936;52.086;5.150;2023-04-01T07:20:20;100057.81;;;10.31;100.00
36726;BME280;44936;52.086;5.150;2023-04-01T07:22:49;100064.78;;;10.32;100.00
36726;BME280;44936;52.086;5.150;2023-04-01T07:25:22;100063.09;;;10.27;100.00
36726;BME280;44936;52.086;5.150;2023-04-01T07:27:52;100056.09;;;10.27;100.00
36726;BME280;44936;52.086;5.150;2023-04-01T07:30:20;100070.91;;;10.34;100.00
36726;BME280;44936;52.086;5.150;2023-04-01T07:32:51;100077.84;;;10.38;100.00
36726;BME280;44936;52.086;5.150;2023-04-01T07:35:28;100079.59;;;10.38;100.00
36726;BME280;44936;52.086;5.150;2023-04-01T07:38:03;100080.44;;;10.44;100.00
36726;BME280;44936;52.086;5.150;2023-04-01T07:45:42;100090.03;;;10.44;100.00
36726;BME280;44936;52.086;5.150;2023-04-01T07:48:32;100095.25;;;10.48;100.00
36726;BME280;44936;52.086;5.150;2023-04-01T07:51:13;100097.03;;;10.43;100.00
36726;BME280;44936;52.086;5.150;2023-04-01T07:53:46;100113.50;;;10.58;100.00
36726;BME280;44936;52.086;5.150;2023-04-01T08:10:55;100149.34;;;10.57;100.00
36726;BME280;44936;52.086;5.150;2023-04-01T08:13:53;100160.63;;;10.67;100.00
36726;BME280;44936;52.086;5.150;2023-04-01T08:21:51;100169.31;;;10.75;100.00
36726;BME280;44936;52.086;5.150;2023-04-01T08:24:33;100183.28;;;10.75;100.00
36726;BME280;44936;52.086;5.150;2023-04-01T08:27:05;100183.34;;;10.68;100.00
36726;BME280;44936;52.086;5.150;2023-04-01T08:29:39;100185.91;;;10.77;100.00
36726;BME280;44936;52.086;5.150;2023-04-01T08:32:18;100200.75;;;10.81;100.00
36726;BME280;44936;52.086;5.150;2023-04-01T08:34:50;100196.38;;;10.82;100.00
36726;BME280;44936;52.086;5.150;2023-04-01T08:37:21;100205.16;;;10.79;100.00
36726;BME280;44936;52.086;5.150;2023-04-01T08:40:01;100218.16;;;10.90;100.00
36726;BME280;44936;52.086;5.150;2023-04-01T08:45:18;100218.22;;;10.82;100.00
36726;BME280;44936;52.086;5.150;2023-04-01T08:53:55;100234.84;;;10.81;100.00
36726;BME280;44936;52.086;5.150;2023-04-01T08:59:16;100235.63;;;10.92;100.00
36726;BME280;44936;52.086;5.150;2023-04-01T09:05:22;100245.97;;;11.11;100.00
36726;BME280;44936;52.086;5.150;2023-04-01T09:08:07;100252.94;;;11.15;100.00
36726;BME280;44936;52.086;5.150;2023-04-01T09:10:47;100251.09;;;11.26;100.00
36726;BME280;44936;52.086;5.150;2023-04-01T09:25:06;100299.28;;;11.17;100.00
36726;BME280;44936;52.086;5.150;2023-04-01T09:30:34;100304.44;;;11.31;100.00
36726;BME280;44936;52.086;5.150;2023-04-01T09:33:47;100298.31;;;11.32;100.00
36726;BME280;44936;52.086;5.150;2023-04-01T09:44:44;100306.81;;;11.57;100.00
36726;BME280;44936;52.086;5.150;2023-04-01T09:47:25;100308.47;;;11.67;100.00
36726;BME280;44936;52.086;5.150;2023-04-01T09:50:33;100313.66;;;11.72;100.00
36726;BME280;44936;52.086;5.150;2023-04-01T09:58:33;100321.50;;;11.75;100.00
36726;BME280;44936;52.086;5.150;2023-04-01T10:01:34;100333.78;;;11.76;100.00
36726;BME280;44936;52.086;5.150;2023-04-01T10:12:45;100363.41;;;11.91;100.00
36726;BME280;44936;52.086;5.150;2023-04-01T10:21:21;100367.88;;;11.85;100.00
36726;BME280;44936;52.086;5.150;2023-04-01T10:29:36;100376.34;;;12.14;100.00
36726;BME280;44936;52.086;5.150;2023-04-01T10:38:03;100392.25;;;11.99;100.00
36726;BME280;44936;52.086;5.150;2023-04-01T10:40:44;100408.09;;;11.93;100.00
36726;BME280;44936;52.086;5.150;2023-04-01T10:43:39;100404.56;;;11.93;100.00
36726;BME280;44936;52.086;5.150;2023-04-01T10:55:04;100405.56;;;11.84;100.00
36726;BME280;44936;52.086;5.150;2023-04-01T11:00:55;100399.19;;;12.06;100.00
36726;BME280;44936;52.086;5.150;2023-04-01T11:12:52;100404.63;;;12.68;100.00
36726;BME280;44936;52.086;5.150;2023-04-01T11:15:41;100412.28;;;12.88;100.00
36726;BME280;44936;52.086;5.150;2023-04-01T11:18:28;100404.44;;;12.85;100.00
36726;BME280;44936;52.086;5.150;2023-04-01T11:27:14;100439.19;;;13.10;100.00
36726;BME280;44936;52.086;5.150;2023-04-01T11:40:51;100486.84;;;12.90;100.00
36726;BME280;44936;52.086;5.150;2023-04-01T11:43:49;100489.25;;;13.05;100.00
36726;BME280;44936;52.086;5.150;2023-04-01T11:46:37;100488.59;;;12.91;100.00
36726;BME280;44936;52.086;5.150;2023-04-01T11:49:29;100506.34;;;12.73;100.00
36726;BME280;44936;52.086;5.150;2023-04-01T11:52:51;100505.34;;;12.84;100.00
36726;BME280;44936;52.086;5.150;2023-04-01T11:58:32;100512.16;;;13.01;100.00
36726;BME280;44936;52.086;5.150;2023-04-01T12:03:48;100529.09;;;12.76;100.00
36726;BME280;44936;52.086;5.150;2023-04-01T12:06:52;100524.66;;;12.80;100.00
36726;BME280;44936;52.086;5.150;2023-04-01T12:12:24;100521.41;;;12.58;100.00
36726;BME280;44936;52.086;5.150;2023-04-01T12:20:52;100539.72;;;12.67;100.00
36726;BME280;44936;52.086;5.150;2023-04-01T12:30:25;100545.25;;;12.36;100.00
36726;BME280;44936;52.086;5.150;2023-04-01T12:35:55;100553.25;;;12.26;100.00
36726;BME280;44936;52.086;5.150;2023-04-01T12:38:43;100550.63;;;12.26;100.00
36726;BME280;44936;52.086;5.150;2023-04-01T12:49:13;100533.34;;;11.93;100.00
36726;BME280;44936;52.086;5.150;2023-04-01T12:54:59;100523.81;;;11.84;100.00
36726;BME280;44936;52.086;5.150;2023-04-01T12:58:00;100513.25;;;11.90;100.00
36726;BME280;44936;52.086;5.150;2023-04-01T13:00:52;100511.47;;;11.94;100.00
36726;BME280;44936;52.086;5.150;2023-04-01T13:06:20;100513.09;;;12.07;100.00
36726;BME280;44936;52.086;5.150;2023-04-01T13:11:45;100540.25;;;12.12;100.00
36726;BME280;44936;52.086;5.150;2023-04-01T13:19:49;100559.94;;;12.62;100.00
36726;BME280;44936;52.086;5.150;2023-04-01T13:22:20;100579.94;;;12.80;100.00
36726;BME280;44936;52.086;5.150;2023-04-01T13:30:17;100592.84;;;13.04;100.00
36726;BME280;44936;52.086;5.150;2023-04-01T13:33:04;100601.88;;;12.82;100.00
36726;BME280;44936;52.086;5.150;2023-04-01T13:35:46;100603.78;;;12.64;100.00
36726;BME280;44936;52.086;5.150;2023-04-01T13:41:11;100615.53;;;12.19;100.00
36726;BME280;44936;52.086;5.150;2023-04-01T13:43:51;100638.38;;;12.14;100.00
36726;BME280;44936;52.086;5.150;2023-04-01T13:52:12;100604.38;;;11.82;100.00
36726;BME280;44936;52.086;5.150;2023-04-01T14:03:27;100533.66;;;11.42;100.00
36726;BME280;44936;52.086;5.150;2023-04-01T14:08:59;100535.47;;;11.28;100.00
36726;BME280;44936;52.086;5.150;2023-04-01T14:11:53;100534.66;;;11.23;100.00
36726;BME280;44936;52.086;5.150;2023-04-01T14:22:46;100469.97;;;11.06;100.00
36726;BME280;44936;52.086;5.150;2023-04-01T14:33:48;100455.88;;;11.21;100.00
36726;BME280;44936;52.086;5.150;2023-04-01T14:45:06;100541.66;;;11.22;100.00
36726;BME280;44936;52.086;5.150;2023-04-01T14:47:43;100552.13;;;11.21;100.00
36726;BME280;44936;52.086;5.150;2023-04-01T14:50:23;100548.63;;;11.22;100.00
36726;BME280;44936;52.086;5.150;2023-04-01T14:55:33;100576.69;;;11.14;100.00
36726;BME280;44936;52.086;5.150;2023-04-01T14:58:17;100578.44;;;11.15;100.00
36726;BME280;44936;52.086;5.150;2023-04-01T15:01:11;100588.94;;;11.15;100.00
36726;BME280;44936;52.086;5.150;2023-04-01T15:13:13;100605.56;;;11.03;100.00
36726;BME280;44936;52.086;5.150;2023-04-01T15:16:03;100628.31;;;11.07;100.00
36726;BME280;44936;52.086;5.150;2023-04-01T15:38:31;100658.97;;;10.90;100.00
36726;BME280;44936;52.086;5.150;2023-04-01T15:41:03;100678.19;;;11.01;100.00
36726;BME280;44936;52.086;5.150;2023-04-01T15:43:49;100684.31;;;10.95;100.00
36726;BME280;44936;52.086;5.150;2023-04-01T15:46:46;100697.44;;;11.03;100.00
36726;BME280;44936;52.086;5.150;2023-04-01T16:06:21;100745.53;;;10.94;100.00
36726;BME280;44936;52.086;5.150;2023-04-01T16:19:51;100750.78;;;10.84;100.00
36726;BME280;44936;52.086;5.150;2023-04-01T16:27:51;100781.41;;;10.80;100.00
36726;BME280;44936;52.086;5.150;2023-04-01T16:30:24;100787.53;;;10.82;100.00
36726;BME280;44936;52.086;5.150;2023-04-01T16:33:01;100792.75;;;10.73;100.00
36726;BME280;44936;52.086;5.150;2023-04-01T16:35:49;100790.16;;;10.70;100.00
36726;BME280;44936;52.086;5.150;2023-04-01T16:51:45;100817.25;;;10.61;100.00
36726;BME280;44936;52.086;5.150;2023-04-01T16:54:28;100833.81;;;10.56;100.00
36726;BME280;44936;52.086;5.150;2023-04-01T16:57:15;100846.94;;;10.53;100.00
36726;BME280;44936;52.086;5.150;2023-04-01T17:02:45;100868.78;;;10.52;100.00
36726;BME280;44936;52.086;5.150;2023-04-01T17:05:12;100864.38;;;10.50;100.00
36726;BME280;44936;52.086;5.150;2023-04-01T17:07:48;100881.88;;;10.45;100.00
36726;BME280;44936;52.086;5.150;2023-04-01T17:10:37;100887.06;;;10.38;100.00
36726;BME280;44936;52.086;5.150;2023-04-01T17:18:59;100901.97;;;10.43;100.00
36726;BME280;44936;52.086;5.150;2023-04-01T17:27:50;100928.16;;;10.34;100.00
36726;BME280;44936;52.086;5.150;2023-04-01T17:30:41;100938.59;;;10.28;100.00
36726;BME280;44936;52.086;5.150;2023-04-01T17:42:09;100962.91;;;10.09;100.00
36726;BME280;44936;52.086;5.150;2023-04-01T17:48:12;100975.91;;;9.98;100.00
36726;BME280;44936;52.086;5.150;2023-04-01T17:54:20;100995.16;;;9.99;100.00
36726;BME280;44936;52.086;5.150;2023-04-01T17:59:18;100995.09;;;9.94;100.00
36726;BME280;44936;52.086;5.150;2023-04-01T18:02:18;100998.59;;;9.91;100.00
36726;BME280;44936;52.086;5.150;2023-04-01T18:21:15;101041.28;;;9.81;100.00
36726;BME280;44936;52.086;5.150;2023-04-01T18:24:30;101025.34;;;9.60;100.00
36726;BME280;44936;52.086;5.150;2023-04-01T18:27:24;101048.13;;;9.67;100.00
36726;BME280;44936;52.086;5.150;2023-04-01T18:29:53;101062.84;;;9.56;100.00
36726;BME280;44936;52.086;5.150;2023-04-01T18:32:27;101077.66;;;9.54;100.00
36726;BME280;44936;52.086;5.150;2023-04-01T18:37:25;101056.66;;;9.46;100.00
36726;BME280;44936;52.086;5.150;2023-04-01T18:39:57;101073.22;;;9.47;100.00
36726;BME280;44936;52.086;5.150;2023-04-01T18:42:45;101078.50;;;9.51;100.00
36726;BME280;44936;52.086;5.150;2023-04-01T18:45:21;101081.97;;;9.47;100.00
36726;BME280;44936;52.086;5.150;2023-04-01T18:50:53;101083.59;;;9.38;100.00
36726;BME280;44936;52.086;5.150;2023-04-01T18:56:05;101102.78;;;9.36;100.00
36726;BME280;44936;52.086;5.150;2023-04-01T18:58:37;101120.25;;;9.38;100.00
36726;BME280;44936;52.086;5.150;2023-04-01T19:01:15;101128.88;;;9.30;100.00
36726;BME280;44936;52.086;5.150;2023-04-01T19:03:53;101133.28;;;9.36;100.00
36726;BME280;44936;52.086;5.150;2023-04-01T19:08:47;101140.97;;;9.22;100.00
36726;BME280;44936;52.086;5.150;2023-04-01T19:11:38;101169.88;;;9.28;100.00
36726;BME280;44936;52.086;5.150;2023-04-01T19:16:59;101183.97;;;9.40;100.00
36726;BME280;44936;52.086;5.150;2023-04-01T19:19:46;101185.63;;;9.33;100.00
36726;BME280;44936;52.086;5.150;2023-04-01T19:37:08;101246.53;;;9.21;100.00
36726;BME280;44936;52.086;5.150;2023-04-01T19:39:52;101245.53;;;9.13;100.00
36726;BME280;44936;52.086;5.150;2023-04-01T19:42:58;101260.28;;;9.08;100.00
36726;BME280;44936;52.086;5.150;2023-04-01T19:51:50;101268.94;;;9.04;100.00
36726;BME280;44936;52.086;5.150;2023-04-01T19:57:11;101292.38;;;8.96;100.00
36726;BME280;44936;52.086;5.150;2023-04-01T20:00:09;101289.56;;;8.86;100.00
36726;BME280;44936;52.086;5.150;2023-04-01T20:11:30;101306.75;;;8.73;100.00
36726;BME280;44936;52.086;5.150;2023-04-01T20:14:29;101304.09;;;8.70;100.00
36726;BME280;44936;52.086;5.150;2023-04-01T20:20:00;101290.88;;;8.62;100.00
36726;BME280;44936;52.086;5.150;2023-04-01T20:27:44;101343.31;;;8.68;100.00
36726;BME280;44936;52.086;5.150;2023-04-01T20:33:37;101355.41;;;8.63;100.00
36726;BME280;44936;52.086;5.150;2023-04-01T20:44:16;101398.13;;;8.64;100.00
36726;BME280;44936;52.086;5.150;2023-04-01T20:46:48;101394.41;;;8.51;100.00
36726;BME280;44936;52.086;5.150;2023-04-01T20:51:54;101428.56;;;8.60;100.00
36726;BME280;44936;52.086;5.150;2023-04-01T21:00:29;101461.53;;;8.54;100.00
36726;BME280;44936;52.086;5.150;2023-04-01T21:03:23;101463.19;;;8.48;100.00
36726;BME280;44936;52.086;5.150;2023-04-01T21:06:15;101478.78;;;8.44;100.00
36726;BME280;44936;52.086;5.150;2023-04-01T21:09:06;101481.78;;;8.24;100.00
36726;BME280;44936;52.086;5.150;2023-04-01T21:17:13;101502.69;;;8.24;100.00
36726;BME280;44936;52.086;5.150;2023-04-01T21:19:56;101514.72;;;8.16;100.00
36726;BME280;44936;52.086;5.150;2023-04-01T21:25:40;101521.84;;;8.23;100.00
36726;BME280;44936;52.086;5.150;2023-04-01T21:28:20;101511.16;;;8.13;100.00
36726;BME280;44936;52.086;5.150;2023-04-01T21:44:41;101559.63;;;8.02;100.00
36726;BME280;44936;52.086;5.150;2023-04-01T21:50:19;101568.44;;;8.05;100.00
36726;BME280;44936;52.086;5.150;2023-04-01T21:56:05;101594.44;;;8.01;100.00
36726;BME280;44936;52.086;5.150;2023-04-01T22:01:46;101591.78;;;7.99;100.00
36726;BME280;44936;52.086;5.150;2023-04-01T22:07:19;101597.63;;;7.89;100.00
36726;BME280;44936;52.086;5.150;2023-04-01T22:10:45;101601.84;;;7.84;100.00